Time;durP1;ratioP1;P1;durP2;ratioP2;P2;SDS_P1;SDS_P2;PMS_P1;PMS_P2;Temp;Humidity;BMP_temperature;BMP_pressure;BME280_temperature;BME280_humidity;BME280_pressure;Samples;Min_cycle;Max_cycle;Signal;HPM_P1;HPM_P2
2023/03/16 00:01:55;;;;;;;1999.90;999.90;;;;;;;-1.26;100.00;101202.34;5070495;28;20033;-77
2023/03/16 00:04:21;;;;;;;1999.90;999.90;;;;;;;-1.21;100.00;101205.19;5070687;28;20079;-77
2023/03/16 00:06:46;;;;;;;1999.90;999.90;;;;;;;-1.23;100.00;101205.13;5070732;28;20071;-77
2023/03/16 00:09:12;;;;;;;1999.90;999.90;;;;;;;-1.20;100.00;101205.28;5066497;28;20035;-77
2023/03/16 00:11:37;;;;;;;1999.90;999.90;;;;;;;-1.18;100.00;101206.25;5073759;28;20036;-77
2023/03/16 00:14:03;;;;;;;1999.90;999.90;;;;;;;-1.18;100.00;101208.84;5074524;28;20090;-77
2023/03/16 00:16:29;;;;;;;1999.90;999.90;;;;;;;-1.19;100.00;101206.16;5074399;28;20497;-77
2023/03/16 00:18:54;;;;;;;1999.90;999.90;;;;;;;-1.21;100.00;101203.50;5074027;28;20040;-77
2023/03/16 00:21:20;;;;;;;1999.90;999.90;;;;;;;-1.22;100.00;101198.25;5069565;28;20036;-77
2023/03/16 00:23:45;;;;;;;1999.90;999.90;;;;;;;-1.22;100.00;101203.44;5074055;28;20041;-77
2023/03/16 00:26:11;;;;;;;1999.90;999.90;;;;;;;-1.25;100.00;101209.34;5074129;28;20127;-77
2023/03/16 00:28:37;;;;;;;1999.90;999.90;;;;;;;-1.25;100.00;101211.03;5055727;28;20043;-77
2023/03/16 00:31:10;;;;;;;1999.90;999.90;;;;;;;-1.26;100.00;101212.72;5064738;28;20037;-77
2023/03/16 00:33:37;;;;;;;1999.90;999.90;;;;;;;-1.30;100.00;101207.31;5074078;28;20032;-77
2023/03/16 00:36:08;;;;;;;1999.90;999.90;;;;;;;-1.33;100.00;101208.94;5073993;28;20033;-77
2023/03/16 00:38:35;;;;;;;1999.90;999.90;;;;;;;-1.36;100.00;101208.78;5073984;28;20394;-77
2023/03/16 00:41:03;;;;;;;1999.90;999.90;;;;;;;-1.30;100.00;101209.91;5073100;28;20040;-77
2023/03/16 00:43:40;;;;;;;1999.90;999.90;;;;;;;-1.29;100.00;101219.44;5069996;28;20058;-76
2023/03/16 00:46:08;;;;;;;1999.90;999.90;;;;;;;-1.30;100.00;101220.28;5073423;28;20032;-77
2023/03/16 00:48:35;;;;;;;1999.90;999.90;;;;;;;-1.29;100.00;101222.03;5051790;28;20064;-77
2023/03/16 00:51:03;;;;;;;1999.90;999.90;;;;;;;-1.32;100.00;101222.75;5073358;28;20127;-77
2023/03/16 00:53:29;;;;;;;1999.90;999.90;;;;;;;-1.35;100.00;101220.03;5073587;28;20039;-77
2023/03/16 00:55:54;;;;;;;1999.90;999.90;;;;;;;-1.37;100.00;101219.94;5039032;28;20036;-77
2023/03/16 00:58:19;;;;;;;1999.90;999.90;;;;;;;-1.37;100.00;101226.81;5064393;28;20620;-77
2023/03/16 01:00:46;;;;;;;1999.90;999.90;;;;;;;-1.38;100.00;101220.75;5073179;28;20036;-77
2023/03/16 01:03:11;;;;;;;1999.90;999.90;;;;;;;-1.39;100.00;101226.75;5038945;28;20488;-77
2023/03/16 01:05:41;;;;;;;1999.90;999.90;;;;;;;-1.37;100.00;101227.69;5052491;28;20155;-77
2023/03/16 01:08:10;;;;;;;1999.90;999.90;;;;;;;-1.36;100.00;101221.72;5054411;28;20039;-77
2023/03/16 01:10:35;;;;;;;1999.90;999.90;;;;;;;-1.32;100.00;101228.81;5054696;28;20081;-77
2023/03/16 01:13:02;;;;;;;1999.90;999.90;;;;;;;-1.33;100.00;101226.19;5073369;28;20036;-77
2023/03/16 01:15:30;;;;;;;1999.90;999.90;;;;;;;-1.37;100.00;101230.28;5063648;28;20063;-77
2023/03/16 01:17:55;;;;;;;1999.90;999.90;;;;;;;-1.40;100.00;101229.25;5038671;28;20048;-77
2023/03/16 01:20:21;;;;;;;1999.90;999.90;;;;;;;-1.40;100.00;101229.25;5054530;28;20119;-77
2023/03/16 01:22:46;;;;;;;1999.90;999.90;;;;;;;-1.41;100.00;101228.34;5072623;28;20040;-77
2023/03/16 01:25:13;;;;;;;1999.90;999.90;;;;;;;-1.43;100.00;101229.97;5063195;28;20051;-77
2023/03/16 01:27:41;;;;;;;1999.90;999.90;;;;;;;-1.45;100.00;101236.75;5055156;28;20483;-77
2023/03/16 01:30:07;;;;;;;1999.90;999.90;;;;;;;-1.45;100.00;101231.56;5054556;28;20514;-77
2023/03/16 01:32:33;;;;;;;1999.90;999.90;;;;;;;-1.47;100.00;101235.78;5055117;28;20103;-77
2023/03/16 01:34:59;;;;;;;1999.90;999.90;;;;;;;-1.47;100.00;101237.47;5058206;28;20047;-77
2023/03/16 01:37:24;;;;;;;1999.90;999.90;;;;;;;-1.48;100.00;101235.72;5072849;28;20052;-77
2023/03/16 01:39:58;;;;;;;1999.90;999.90;;;;;;;-1.49;100.00;101229.66;5052211;28;20029;-76
2023/03/16 01:42:24;;;;;;;1999.90;999.90;;;;;;;-1.47;100.00;101237.47;5072142;28;20038;-76
2023/03/16 01:45:00;;;;;;;1999.90;999.90;;;;;;;-1.47;100.00;101232.31;5054697;28;20024;-76
2023/03/16 01:47:37;;;;;;;1999.90;999.90;;;;;;;-1.53;100.00;101238.03;5054804;28;20086;-76
2023/03/16 01:50:04;;;;;;;1999.90;999.90;;;;;;;-1.56;100.00;101238.78;5038573;28;20516;-76
2023/03/16 01:52:36;;;;;;;1999.90;999.90;;;;;;;-1.56;100.00;101230.13;5060147;28;20111;-76
2023/03/16 01:55:14;;;;;;;1999.90;999.90;;;;;;;-1.51;100.00;101232.97;5063172;28;20726;-77
2023/03/16 01:57:43;;;;;;;1999.90;999.90;;;;;;;-1.51;100.00;101236.44;5054591;28;20120;-77
2023/03/16 02:00:30;;;;;;;1999.90;999.90;;;;;;;-1.46;100.00;101237.56;5072000;28;20032;-77
2023/03/16 02:03:12;;;;;;;1999.90;999.90;;;;;;;-1.45;100.00;101231.56;5045834;28;20123;-77
2023/03/16 02:06:05;;;;;;;1999.90;999.90;;;;;;;-1.46;100.00;101231.50;5074008;28;20064;-77
2023/03/16 02:08:35;;;;;;;1999.90;999.90;;;;;;;-1.47;100.00;101233.19;5050978;28;20405;-77
2023/03/16 02:11:03;;;;;;;1999.90;999.90;;;;;;;-1.48;100.00;101226.25;5071815;28;20028;-77
2023/03/16 02:13:39;;;;;;;1999.90;999.90;;;;;;;-1.55;100.00;101225.03;5054275;28;20051;-76
2023/03/16 02:16:07;;;;;;;1999.90;999.90;;;;;;;-1.54;100.00;101223.34;5054139;28;20115;-77
2023/03/16 02:18:34;;;;;;;1999.90;999.90;;;;;;;-1.56;100.00;101222.34;5062560;28;20119;-77
2023/03/16 02:21:28;;;;;;;1999.90;999.90;;;;;;;-1.55;100.00;101226.72;5049653;28;20032;-77
2023/03/16 02:23:54;;;;;;;1999.90;999.90;;;;;;;-1.61;100.00;101232.47;5047048;28;20037;-77
2023/03/16 02:26:43;;;;;;;1999.90;999.90;;;;;;;-1.64;100.00;101231.41;5072040;28;20029;-77
2023/03/16 02:29:28;;;;;;;1999.90;999.90;;;;;;;-1.69;100.00;101236.31;5053528;28;20721;-77
2023/03/16 02:31:57;;;;;;;1999.90;999.90;;;;;;;-1.75;100.00;101233.41;5051982;28;20417;-77
2023/03/16 02:34:24;;;;;;;1999.90;999.90;;;;;;;-1.80;100.00;101230.56;5073382;28;20045;-76
2023/03/16 02:36:51;;;;;;;1999.90;999.90;;;;;;;-1.93;100.00;101235.00;5061666;28;20029;-76
2023/03/16 02:39:21;;;;;;;1999.90;999.90;;;;;;;-2.08;100.00;101243.66;5057694;28;20040;-77
2023/03/16 02:41:48;;;;;;;1999.90;999.90;;;;;;;-2.06;100.00;101241.19;5053410;28;20032;-77
2023/03/16 02:44:19;;;;;;;1999.90;999.90;;;;;;;-2.01;100.00;101245.81;5053697;28;20028;-77
2023/03/16 02:46:46;;;;;;;1999.90;999.90;;;;;;;-2.01;100.00;101247.50;5071630;28;20576;-76
2023/03/16 02:49:20;;;;;;;1999.90;999.90;;;;;;;-2.02;100.00;101240.53;5053287;28;20451;-77
2023/03/16 02:51:47;;;;;;;1999.90;999.90;;;;;;;-2.04;100.00;101237.88;5053476;28;20032;-77
2023/03/16 02:54:13;;;;;;;1999.90;999.90;;;;;;;-2.01;100.00;101237.16;5053428;28;20037;-76
2023/03/16 02:56:39;;;;;;;1999.90;999.90;;;;;;;-1.99;100.00;101238.13;5053462;28;20046;-77
2023/03/16 02:59:04;;;;;;;1999.90;999.90;;;;;;;-1.97;100.00;101239.09;5053139;28;20025;-77
2023/03/16 03:01:31;;;;;;;1999.90;999.90;;;;;;;-1.96;100.00;101240.00;5053115;28;20512;-77
2023/03/16 03:03:57;;;;;;;1999.90;999.90;;;;;;;-1.94;100.00;101244.44;5054846;28;20028;-76
2023/03/16 03:06:24;;;;;;;1999.90;999.90;;;;;;;-1.92;100.00;101242.81;5049491;28;20032;-77
2023/03/16 03:08:50;;;;;;;1999.90;999.90;;;;;;;-1.91;100.00;101239.44;5070877;28;20029;-77
2023/03/16 03:11:17;;;;;;;1999.90;999.90;;;;;;;-1.91;100.00;101244.63;5053452;28;20383;-77
2023/03/16 03:13:43;;;;;;;1999.90;999.90;;;;;;;-1.94;100.00;101247.00;5052934;28;20031;-77
2023/03/16 03:16:13;;;;;;;1999.90;999.90;;;;;;;-1.93;100.00;101251.41;5053275;28;20409;-77
2023/03/16 03:18:38;;;;;;;1999.90;999.90;;;;;;;-1.96;100.00;101259.00;5053193;28;20056;-77
2023/03/16 03:21:04;;;;;;;1999.90;999.90;;;;;;;-1.97;100.00;101264.97;5052188;28;20111;-76
2023/03/16 03:23:34;;;;;;;1999.90;999.90;;;;;;;-1.98;100.00;101256.31;5052749;28;20024;-77
2023/03/16 03:26:00;;;;;;;1999.90;999.90;;;;;;;-2.01;100.00;101253.56;5071084;28;20545;-77
2023/03/16 03:28:26;;;;;;;1999.90;999.90;;;;;;;-2.04;100.00;101261.16;5052472;28;20193;-77
2023/03/16 03:30:51;;;;;;;1999.90;999.90;;;;;;;-2.08;100.00;101258.31;5052304;28;20524;-76
2023/03/16 03:33:18;;;;;;;1999.90;999.90;;;;;;;-2.10;100.00;101260.78;5052601;28;20044;-76
2023/03/16 03:35:43;;;;;;;1999.90;999.90;;;;;;;-2.10;100.00;101255.63;5063473;28;20024;-76
2023/03/16 03:38:10;;;;;;;1999.90;999.90;;;;;;;-2.12;100.00;101262.44;5052888;28;20051;-76
2023/03/16 03:40:36;;;;;;;1999.90;999.90;;;;;;;-2.12;100.00;101270.19;5052204;28;20442;-77
2023/03/16 03:43:03;;;;;;;1999.90;999.90;;;;;;;-2.12;100.00;101274.44;5052615;28;20033;-76
2023/03/16 03:45:31;;;;;;;1999.90;999.90;;;;;;;-2.16;100.00;101277.66;5066336;28;20040;-76
2023/03/16 03:47:57;;;;;;;1999.90;999.90;;;;;;;-2.25;100.00;101281.53;5057169;28;20398;-76
2023/03/16 03:50:23;;;;;;;1999.90;999.90;;;;;;;-2.29;100.00;101274.38;5056365;28;20029;-76
2023/03/16 03:53:16;;;;;;;1999.90;999.90;;;;;;;-2.30;100.00;101277.78;5050586;28;20032;-76
2023/03/16 03:56:01;;;;;;;1999.90;999.90;;;;;;;-2.34;100.00;101282.69;5074326;28;20061;-76
2023/03/16 03:58:26;;;;;;;1999.90;999.90;;;;;;;-2.37;100.00;101287.69;5056726;28;20041;-76
2023/03/16 04:00:52;;;;;;;1999.90;999.90;;;;;;;-2.39;100.00;101284.97;5074258;28;20509;-76
2023/03/16 04:03:17;;;;;;;1999.90;999.90;;;;;;;-2.39;100.00;101287.56;5071319;28;20107;-77
2023/03/16 04:05:44;;;;;;;1999.90;999.90;;;;;;;-2.41;100.00;101289.19;5062832;28;20175;-76
2023/03/16 04:08:10;;;;;;;1999.90;999.90;;;;;;;-2.49;100.00;101287.84;5052644;28;20112;-77
2023/03/16 04:10:36;;;;;;;1999.90;999.90;;;;;;;-2.51;100.00;101292.94;5073966;28;20166;-76
2023/03/16 04:13:01;;;;;;;1999.90;999.90;;;;;;;-2.55;100.00;101298.72;5056484;28;20070;-76
2023/03/16 04:15:31;;;;;;;1999.90;999.90;;;;;;;-2.55;100.00;101290.06;5056372;28;20044;-76
2023/03/16 04:18:06;;;;;;;1999.90;999.90;;;;;;;-2.56;100.00;101285.72;5049111;28;20040;-76
2023/03/16 04:20:33;;;;;;;1999.90;999.90;;;;;;;-2.58;100.00;101288.19;5055985;28;20028;-76
2023/03/16 04:22:59;;;;;;;1999.90;999.90;;;;;;;-2.59;100.00;101282.94;5055886;28;20174;-76
2023/03/16 04:25:26;;;;;;;1999.90;999.90;;;;;;;-2.54;100.00;101284.09;5074395;28;20128;-76
2023/03/16 04:27:52;;;;;;;1999.90;999.90;;;;;;;-2.54;100.00;101279.84;5064894;28;20559;-76
2023/03/16 04:30:18;;;;;;;1999.90;999.90;;;;;;;-2.52;100.00;101280.78;5055631;28;20029;-76
2023/03/16 04:32:49;;;;;;;1999.90;999.90;;;;;;;-2.48;100.00;101279.31;5052290;28;20036;-76
2023/03/16 04:35:18;;;;;;;1999.90;999.90;;;;;;;-2.43;100.00;101285.63;5059787;28;20040;-76
2023/03/16 04:37:48;;;;;;;1999.90;999.90;;;;;;;-2.39;100.00;101284.09;5056160;28;20115;-77
2023/03/16 04:40:14;;;;;;;1999.90;999.90;;;;;;;-2.40;100.00;101285.81;5055559;28;20031;-76
2023/03/16 04:42:41;;;;;;;1999.90;999.90;;;;;;;-2.38;100.00;101276.44;5055688;28;20123;-76
2023/03/16 04:45:12;;;;;;;1999.90;999.90;;;;;;;-2.34;100.00;101283.56;5063877;28;20039;-76
2023/03/16 04:47:38;;;;;;;1999.90;999.90;;;;;;;-2.38;100.00;101279.03;5055850;28;20115;-76
2023/03/16 04:50:05;;;;;;;1999.90;999.90;;;;;;;-2.40;100.00;101287.50;5063244;28;20254;-76
2023/03/16 04:52:31;;;;;;;1999.90;999.90;;;;;;;-2.45;100.00;101270.00;5055150;28;20043;-76
2023/03/16 04:54:59;;;;;;;1999.90;999.90;;;;;;;-2.43;100.00;101281.34;5068679;28;20040;-77
2023/03/16 04:57:25;;;;;;;1999.90;999.90;;;;;;;-2.44;100.00;101282.16;5052326;28;20041;-76
2023/03/16 04:59:51;;;;;;;1999.90;999.90;;;;;;;-2.43;100.00;101285.63;5055373;28;20044;-76
2023/03/16 05:02:24;;;;;;;1999.90;999.90;;;;;;;-2.43;100.00;101281.34;5054890;28;20093;-76
2023/03/16 05:04:49;;;;;;;1999.90;999.90;;;;;;;-2.48;100.00;101293.09;5073579;28;20486;-76
2023/03/16 05:07:16;;;;;;;1999.90;999.90;;;;;;;-2.47;100.00;101286.25;5055444;28;20410;-76
2023/03/16 05:09:46;;;;;;;1999.90;999.90;;;;;;;-2.50;100.00;101286.94;5063055;28;20033;-76
2023/03/16 05:12:12;;;;;;;1999.90;999.90;;;;;;;-2.51;100.00;101282.59;5073335;28;20027;-76
2023/03/16 05:14:38;;;;;;;1999.90;999.90;;;;;;;-2.59;100.00;101285.50;5055229;28;20051;-76
2023/03/16 05:17:15;;;;;;;1999.90;999.90;;;;;;;-2.66;100.00;101292.03;5051729;28;20028;-76
2023/03/16 05:19:43;;;;;;;1999.90;999.90;;;;;;;-2.73;100.00;101289.88;5054884;28;20088;-76
2023/03/16 05:22:09;;;;;;;1999.90;999.90;;;;;;;-2.81;100.00;101291.13;5051411;28;20025;-76
2023/03/16 05:24:36;;;;;;;1999.90;999.90;;;;;;;-2.87;100.00;101296.81;5054292;28;20032;-76
2023/03/16 05:27:02;;;;;;;1999.90;999.90;;;;;;;-2.85;100.00;101296.91;5072902;28;20034;-76
2023/03/16 05:29:30;;;;;;;1999.90;999.90;;;;;;;-2.81;100.00;101298.88;5053717;28;20028;-76
2023/03/16 05:31:56;;;;;;;1999.90;999.90;;;;;;;-2.81;100.00;101299.75;5060771;28;20029;-76
2023/03/16 05:34:24;;;;;;;1999.90;999.90;;;;;;;-2.82;100.00;101297.97;5055324;28;20036;-76
2023/03/16 05:36:50;;;;;;;1999.90;999.90;;;;;;;-2.84;100.00;101304.75;5054753;28;20025;-76
2023/03/16 05:39:17;;;;;;;1999.90;999.90;;;;;;;-2.90;100.00;101306.97;5054543;28;20115;-76
2023/03/16 05:41:46;;;;;;;1999.90;999.90;;;;;;;-2.92;100.00;101309.44;5054609;28;20032;-76
2023/03/16 05:44:24;;;;;;;1999.90;999.90;;;;;;;-2.88;100.00;101315.72;5053523;28;20367;-76
2023/03/16 05:47:16;;;;;;;1999.90;999.90;;;;;;;-2.83;100.00;101314.25;5050818;28;20020;-76
2023/03/16 05:49:45;;;;;;;1999.90;999.90;;;;;;;-2.78;100.00;101312.84;5052941;28;20028;-76
2023/03/16 05:52:21;;;;;;;1999.90;999.90;;;;;;;-2.76;100.00;101319.00;5053913;28;20028;-76
2023/03/16 05:54:46;;;;;;;1999.90;999.90;;;;;;;-2.72;100.00;101314.94;5053346;28;20486;-77
2023/03/16 05:57:11;;;;;;;1999.90;999.90;;;;;;;-2.67;100.00;101313.50;5072301;28;20056;-76
2023/03/16 05:59:39;;;;;;;1999.90;999.90;;;;;;;-2.65;100.00;101310.22;5032072;28;20521;-76
2023/03/16 06:02:10;;;;;;;1999.90;999.90;;;;;;;-2.65;100.00;101322.22;5049656;28;20029;-76
2023/03/16 06:04:35;;;;;;;1999.90;999.90;;;;;;;-2.60;100.00;101322.50;5054288;28;20051;-76
2023/03/16 06:07:01;;;;;;;1999.90;999.90;;;;;;;-2.51;100.00;101329.13;5053049;28;20494;-76
2023/03/16 06:09:28;;;;;;;1999.90;999.90;;;;;;;-2.42;100.00;101321.88;5061450;28;20031;-76
2023/03/16 06:11:53;;;;;;;1999.90;999.90;;;;;;;-2.33;100.00;101318.06;5052731;28;20119;-76
2023/03/16 06:14:20;;;;;;;1999.90;999.90;;;;;;;-2.23;100.00;101321.28;5070796;28;20491;-76
2023/03/16 06:16:45;;;;;;;1999.90;999.90;;;;;;;-2.17;100.00;101318.16;5053237;28;20559;-76
2023/03/16 06:19:12;;;;;;;1999.90;999.90;;;;;;;-2.14;100.00;101322.63;5053654;28;20033;-76
2023/03/16 06:21:37;;;;;;;1999.90;999.90;;;;;;;-2.11;100.00;101330.56;5053755;28;20499;-76
2023/03/16 06:24:08;;;;;;;1999.90;999.90;;;;;;;-2.03;100.00;101329.28;5053845;28;20518;-77
2023/03/16 06:26:35;;;;;;;1999.90;999.90;;;;;;;-1.91;100.00;101327.41;5066505;28;20036;-76
2023/03/16 06:29:02;;;;;;;1999.90;999.90;;;;;;;-1.80;100.00;101325.44;5068961;28;20036;-76
2023/03/16 06:31:28;;;;;;;1999.90;999.90;;;;;;;-1.68;100.00;101328.69;5053519;28;20036;-76
2023/03/16 06:33:53;;;;;;;1999.90;999.90;;;;;;;-1.56;100.00;101325.91;5070062;22;20049;-77
2023/03/16 06:36:20;;;;;;;1999.90;999.90;;;;;;;-1.38;100.00;101321.72;5053305;28;20032;-77
2023/03/16 06:38:50;;;;;;;1999.90;999.90;;;;;;;-1.26;100.00;101318.91;5046363;28;20196;-77
2023/03/16 06:41:23;;;;;;;1999.90;999.90;;;;;;;-1.10;100.00;101320.66;5050429;28;20078;-77
2023/03/16 06:43:49;;;;;;;1999.90;999.90;;;;;;;-0.94;100.00;101318.06;5070348;28;20115;-77
2023/03/16 06:46:15;;;;;;;1999.90;999.90;;;;;;;-0.79;100.00;101320.53;5051366;28;20037;-77
2023/03/16 06:48:40;;;;;;;1999.90;999.90;;;;;;;-0.65;100.00;101313.50;5052474;28;20090;-77
2023/03/16 06:51:07;;;;;;;1999.90;999.90;;;;;;;-0.51;100.00;101316.78;5050487;28;20029;-77
2023/03/16 06:53:33;;;;;;;1999.90;999.90;;;;;;;-0.36;100.00;101316.69;5058767;28;20032;-77
2023/03/16 06:56:00;;;;;;;1999.90;999.90;;;;;;;-0.23;100.00;101324.28;5052898;28;20033;-77
2023/03/16 06:58:27;;;;;;;1999.90;999.90;;;;;;;-0.10;100.00;101316.28;5050048;28;20032;-77
2023/03/16 07:00:52;;;;;;;1999.90;999.90;;;;;;;0.06;100.00;101327.41;5049872;28;20414;-76
2023/03/16 07:03:18;;;;;;;1999.90;999.90;;;;;;;0.23;100.00;101326.50;5051020;28;20036;-77
2023/03/16 07:05:49;;;;;;;1999.90;999.90;;;;;;;0.38;100.00;101340.25;5053758;28;20032;-77
2023/03/16 07:08:15;;;;;;;1999.90;999.90;;;;;;;0.49;100.00;101329.47;5051604;28;20564;-77
2023/03/16 07:10:41;;;;;;;1999.90;999.90;;;;;;;0.60;100.00;101336.97;5048774;28;20038;-76
2023/03/16 07:13:06;;;;;;;1999.90;999.90;;;;;;;0.69;100.00;101340.81;5049337;28;20032;-76
2023/03/16 07:15:31;;;;;;;1999.90;999.90;;;;;;;0.76;100.00;101335.97;5051226;28;20082;-76
2023/03/16 07:17:58;;;;;;;1999.90;999.90;;;;;;;0.77;100.00;101345.53;5052842;28;20044;-76
2023/03/16 07:20:25;;;;;;;1999.90;999.90;;;;;;;0.76;100.00;101346.38;5049058;28;20036;-76
2023/03/16 07:22:51;;;;;;;1999.90;999.90;;;;;;;0.76;100.00;101346.38;5049583;28;20149;-76
2023/03/16 07:25:16;;;;;;;1999.90;999.90;;;;;;;0.82;100.00;101341.44;5049725;28;20115;-76
2023/03/16 07:27:47;;;;;;;1999.90;999.90;;;;;;;0.90;100.00;101346.13;5049731;28;20059;-76
2023/03/16 07:30:18;;;;;;;1999.90;999.90;;;;;;;0.94;100.00;101340.22;5048705;28;20525;-76
2023/03/16 07:32:46;;;;;;;1999.90;999.90;;;;;;;1.02;100.00;101344.06;5048753;28;20083;-76
2023/03/16 07:35:11;;;;;;;1999.90;999.90;;;;;;;1.07;100.00;101343.47;5052174;28;20692;-76
2023/03/16 07:37:37;;;;;;;1999.90;999.90;;;;;;;1.11;100.00;101344.47;5049717;28;20052;-76
2023/03/16 07:40:06;;;;;;;1999.90;999.90;;;;;;;1.23;100.00;101347.66;5049312;28;20064;-76
2023/03/16 07:42:34;;;;;;;1999.90;999.90;;;;;;;1.28;100.00;101346.13;5057167;28;20115;-76
2023/03/16 07:45:13;;;;;;;1999.90;999.90;;;;;;;1.38;100.00;101349.13;5049413;28;20033;-76
2023/03/16 07:47:39;;;;;;;1999.90;999.90;;;;;;;1.46;100.00;101352.94;5049501;28;20029;-76
2023/03/16 07:50:14;;;;;;;1999.90;999.90;;;;;;;1.51;100.00;101351.44;5047585;28;20410;-76
2023/03/16 07:52:42;;;;;;;1999.90;999.90;;;;;;;1.58;100.00;101356.09;5045892;28;20033;-76
2023/03/16 07:55:09;;;;;;;1999.90;999.90;;;;;;;1.67;100.00;101358.19;5050691;28;20021;-76
2023/03/16 07:57:34;;;;;;;1999.90;999.90;;;;;;;1.73;100.00;101369.78;5049388;28;20039;-76
2023/03/16 08:00:04;;;;;;;1999.90;999.90;;;;;;;1.85;100.00;101347.69;5049065;28;20083;-76
2023/03/16 08:02:38;;;;;;;1999.90;999.90;;;;;;;1.97;100.00;101358.63;5054070;28;20422;-76
2023/03/16 08:05:05;;;;;;;1999.90;999.90;;;;;;;2.01;100.00;101368.31;5054951;28;20033;-76
2023/03/16 08:07:30;;;;;;;1999.90;999.90;;;;;;;2.10;100.00;101362.63;5055587;28;20564;-76
2023/03/16 08:10:01;;;;;;;1999.90;999.90;;;;;;;2.11;100.00;101367.88;5049970;28;20036;-77
2023/03/16 08:12:45;;;;;;;1999.90;999.90;;;;;;;2.15;100.00;101353.28;5048668;28;20029;-76
2023/03/16 08:15:11;;;;;;;1999.90;999.90;;;;;;;2.30;100.00;101358.22;5032779;28;20045;-76
2023/03/16 08:17:40;;;;;;;1999.90;999.90;;;;;;;2.38;100.00;101360.34;5049230;28;20530;-77
2023/03/16 08:20:11;;;;;;;1999.90;999.90;;;;;;;2.46;100.00;101360.59;5032718;28;20079;-76
2023/03/16 08:22:37;;;;;;;1999.90;999.90;;;;;;;2.47;100.00;101362.41;5051384;28;20063;-76
2023/03/16 08:25:05;;;;;;;1999.90;999.90;;;;;;;2.52;100.00;101366.09;5049022;28;20463;-76
2023/03/16 08:27:31;;;;;;;1999.90;999.90;;;;;;;2.68;100.00;101367.56;5032618;28;20087;-76
2023/03/16 08:30:04;;;;;;;1999.90;999.90;;;;;;;2.78;100.00;101358.41;5049010;28;20035;-76
2023/03/16 08:32:30;;;;;;;1999.90;999.90;;;;;;;2.85;100.00;101363.88;5056035;28;20395;-76
2023/03/16 08:34:56;;;;;;;1999.90;999.90;;;;;;;2.95;100.00;101366.84;5054770;28;20032;-76
2023/03/16 08:37:22;;;;;;;1999.90;999.90;;;;;;;3.00;100.00;101365.31;5036180;28;20036;-76
2023/03/16 08:39:51;;;;;;;1999.90;999.90;;;;;;;3.07;100.00;101368.22;5052470;28;20568;-76
2023/03/16 08:42:18;;;;;;;1999.90;999.90;;;;;;;3.16;100.00;101372.00;5052704;28;20037;-76
2023/03/16 08:44:48;;;;;;;1999.90;999.90;;;;;;;3.22;100.00;101370.53;5062082;28;20078;-77
2023/03/16 08:47:14;;;;;;;1999.90;999.90;;;;;;;3.27;100.00;101378.50;5052023;28;20398;-77
2023/03/16 08:49:43;;;;;;;1999.90;999.90;;;;;;;3.38;100.00;101378.88;5060088;28;20030;-76
2023/03/16 08:52:12;;;;;;;1999.90;999.90;;;;;;;3.51;100.00;101383.72;5036399;28;20068;-77
2023/03/16 08:54:38;;;;;;;1999.90;999.90;;;;;;;3.64;100.00;101385.03;5053801;28;20061;-77
2023/03/16 08:57:04;;;;;;;1999.90;999.90;;;;;;;3.71;100.00;101379.22;5053681;28;20120;-77
2023/03/16 08:59:30;;;;;;;1999.90;999.90;;;;;;;3.79;100.00;101377.75;5053403;28;20575;-77
2023/03/16 09:01:55;;;;;;;1999.90;999.90;;;;;;;3.86;100.00;101384.97;5053820;28;20037;-77
2023/03/16 09:04:21;;;;;;;1999.90;999.90;;;;;;;3.86;100.00;101390.19;5053256;28;20561;-77
2023/03/16 09:06:49;;;;;;;1999.90;999.90;;;;;;;3.98;100.00;101386.22;5052024;28;20028;-77
2023/03/16 09:09:15;;;;;;;1999.90;999.90;;;;;;;4.06;99.38;101384.75;5049308;28;20051;-77
2023/03/16 09:11:41;;;;;;;1999.90;999.90;;;;;;;4.19;100.00;101376.50;5055573;28;20487;-77
2023/03/16 09:14:06;;;;;;;1999.90;999.90;;;;;;;4.22;100.00;101383.53;5058225;28;20450;-77
2023/03/16 09:16:31;;;;;;;1999.90;999.90;;;;;;;4.17;100.00;101376.47;5053110;28;20048;-77
2023/03/16 09:18:57;;;;;;;1999.90;999.90;;;;;;;4.27;100.00;101372.44;5052857;28;20032;-77
2023/03/16 09:21:22;;;;;;;1999.90;999.90;;;;;;;4.38;100.00;101380.63;5051779;28;20037;-77
2023/03/16 09:23:48;;;;;;;1999.90;999.90;;;;;;;4.51;100.00;101377.56;5051571;28;20079;-77
2023/03/16 09:26:14;;;;;;;1999.90;999.90;;;;;;;4.64;97.17;101381.47;5052016;28;20083;-77
2023/03/16 09:28:40;;;;;;;1999.90;999.90;;;;;;;4.77;97.90;101369.66;5052999;28;20039;-77
2023/03/16 09:31:07;;;;;;;1999.90;999.90;;;;;;;4.90;97.61;101382.28;5052504;28;20134;-77
2023/03/16 09:33:34;;;;;;;1999.90;999.90;;;;;;;4.93;93.05;101365.78;5056780;28;20074;-77
2023/03/16 09:36:00;;;;;;;1999.90;999.90;;;;;;;4.97;93.01;101372.84;5053726;28;20037;-77
2023/03/16 09:38:26;;;;;;;1999.90;999.90;;;;;;;4.92;90.23;101374.44;5053947;28;20438;-77
2023/03/16 09:40:59;;;;;;;1999.90;999.90;;;;;;;5.14;91.73;101378.63;5052582;28;20047;-77
2023/03/16 09:43:32;;;;;;;1999.90;999.90;;;;;;;5.31;87.81;101379.09;5052533;28;20082;-77
2023/03/16 09:46:09;;;;;;;1999.90;999.90;;;;;;;5.41;87.55;101373.28;5058863;28;20036;-77
2023/03/16 09:48:36;;;;;;;1999.90;999.90;;;;;;;5.44;86.40;101375.97;5048776;28;20041;-77
2023/03/16 09:51:06;;;;;;;1999.90;999.90;;;;;;;5.53;86.84;101373.63;5050953;28;20041;-77
2023/03/16 09:53:36;;;;;;;1999.90;999.90;;;;;;;5.60;84.13;101367.69;5052554;28;20407;-77
2023/03/16 09:56:07;;;;;;;1999.90;999.90;;;;;;;5.65;82.45;101375.69;5050980;28;20091;-77
2023/03/16 09:58:32;;;;;;;1999.90;999.90;;;;;;;5.71;83.42;101373.22;5052568;28;20041;-77
2023/03/16 10:01:19;;;;;;;1999.90;999.90;;;;;;;5.86;82.25;101371.03;5052101;28;20033;-77
2023/03/16 10:04:03;;;;;;;1999.90;999.90;;;;;;;5.91;83.48;101360.66;5050579;28;20120;-77
2023/03/16 10:06:30;;;;;;;1999.90;999.90;;;;;;;6.00;83.01;101368.81;5048533;28;20037;-77
2023/03/16 10:09:15;;;;;;;1999.90;999.90;;;;;;;5.98;80.91;101370.50;5043080;28;20060;-77
2023/03/16 10:11:51;;;;;;;1999.90;999.90;;;;;;;5.96;80.65;101372.19;5049920;28;20037;-77
2023/03/16 10:14:32;;;;;;;1999.90;999.90;;;;;;;5.84;78.21;101371.81;5051472;28;20036;-77
2023/03/16 10:17:27;;;;;;;1999.90;999.90;;;;;;;5.98;77.81;101360.03;5050967;28;20100;-77
2023/03/16 10:19:58;;;;;;;1999.90;999.90;;;;;;;6.08;76.96;101367.28;5051920;28;20086;-77
2023/03/16 10:22:32;;;;;;;1999.90;999.90;;;;;;;6.03;72.14;101361.03;5049604;28;20045;-77
2023/03/16 10:25:19;;;;;;;1999.90;999.90;;;;;;;6.10;69.86;101352.47;5052307;28;20037;-77
2023/03/16 10:27:45;;;;;;;1999.90;999.90;;;;;;;6.19;74.51;101358.81;5045089;28;20048;-77
2023/03/16 10:30:26;;;;;;;1999.90;999.90;;;;;;;6.31;69.62;101353.84;5051835;28;20395;-77
2023/03/16 10:32:52;;;;;;;1999.90;999.90;;;;;;;6.43;69.96;101355.88;5052619;28;20115;-78
2023/03/16 10:35:54;;;;;;;1999.90;999.90;;;;;;;6.54;67.13;101347.41;5050252;28;20107;-77
2023/03/16 10:38:37;;;;;;;1999.90;999.90;;;;;;;6.75;68.75;101352.25;5047522;28;20037;-77
2023/03/16 10:41:25;;;;;;;1999.90;999.90;;;;;;;6.85;66.29;101350.72;5052855;28;20503;-77
2023/03/16 10:43:56;;;;;;;1999.90;999.90;;;;;;;6.92;63.96;101346.53;5051778;28;20055;-77
2023/03/16 10:46:24;;;;;;;1999.90;999.90;;;;;;;7.03;64.41;101337.13;5052552;28;20044;-77
2023/03/16 10:49:00;;;;;;;1999.90;999.90;;;;;;;7.09;64.70;101334.63;5052294;28;20044;-77
2023/03/16 10:51:28;;;;;;;1999.90;999.90;;;;;;;7.09;61.38;101339.00;5045470;28;20407;-77